Ithaca Tompkins Regional Airport
KITH : now visible

Airfield :











YOU CAN JOIN US ON...

 
LOGIN :

Register | Disclaimer

   EN    FR    IT 

 









Legend :    VFR   Marginal VFR   IFR   Intensive IFR   Very Intensive IFR
Visi :
Ceiling :
>= 8 km
>= 3000ft
5 to 8 km
1000 to 3000 ft
1500m to 5 km
500 to 1000 ft
800 to 1500m
200 to 500 ft
< 800m
< 200 ft
Symbols :   Thunderstorms  Fog  Heavy snow  Heavy precipitations  Wind > 20 kt






- Airport Elevation : 1099 ft
- IATA code : ITH


KITH - Ithaca Tompkins Regional

CURRENT METAR :
  • 150856Z AUTO 07004KT 1 1/4SM BR CLR 13/12 A3001 RMK AO2 SLP155 T01280117 50000 PWINO $

EXPIRED METARs :
  • 150756Z AUTO 00000KT 1 1/4SM BR CLR 14/13 A3001 RMK AO2 SLP156 T01390128 PWINO $
  • 150656Z AUTO 07004KT 1 1/4SM HZ CLR 15/12 A3001 RMK AO2 SLP155 T01500117 PWINO $

TAF KITH
Valid from the 15 at 06:00 until the 16 at 06:00 UTC


150542Z 1506/1606 VRB03KT P6SM SCT100 BKN150
FM151700 07004KT P6SM VCSH SCT070 BKN100 AMD NOT SKED
KZNY FIR / North America



MET'MAP, your aeronautical weather chart ! - Copyright ORBIFLY December 2007 - Disclaimer

ORBIFLY MET'MAP TEAM :

Programming & Development : Alexandra Zaïnal
Original concept : Baudouin d'Aumeries
Technical & hardware support : Manuel Goepfert
Assistance : Marc-Olivier Méhu




SOURCES & CREDITS :

   NOAA       Earth
Advisory